createdAt,value
2022-11-16T00:02:11.498Z,12.68
2022-11-16T00:04:38.038Z,12.65
2022-11-16T00:07:04.735Z,12.62
2022-11-16T00:09:31.935Z,12.61
2022-11-16T00:11:59.774Z,12.60
2022-11-16T00:14:27.377Z,12.60
2022-11-16T00:16:53.795Z,12.59
2022-11-16T00:19:20.110Z,12.58
2022-11-16T00:21:46.592Z,12.56
2022-11-16T00:24:13.820Z,12.58
2022-11-16T00:26:40.567Z,12.59
2022-11-16T00:29:12.322Z,12.58
2022-11-16T00:31:38.650Z,12.58
2022-11-16T00:34:05.051Z,12.60
2022-11-16T00:36:31.366Z,12.62
2022-11-16T00:38:57.669Z,12.62
2022-11-16T00:41:24.081Z,12.63
2022-11-16T00:43:50.462Z,12.60
2022-11-16T00:46:16.793Z,12.62
2022-11-16T00:48:43.067Z,12.63
2022-11-16T00:51:09.389Z,12.62
2022-11-16T00:53:36.232Z,12.61
2022-11-16T00:56:02.568Z,12.59
2022-11-16T00:58:28.831Z,12.60
2022-11-16T01:00:55.176Z,12.62
2022-11-16T01:03:21.488Z,12.63
2022-11-16T01:05:47.914Z,12.62
2022-11-16T01:08:14.467Z,12.61
2022-11-16T01:10:41.470Z,12.62
2022-11-16T01:13:07.948Z,12.62
2022-11-16T01:15:34.199Z,12.63
2022-11-16T01:18:00.579Z,12.65
2022-11-16T01:20:27.840Z,12.66
2022-11-16T01:22:54.182Z,12.60
2022-11-16T01:25:20.830Z,12.63
2022-11-16T01:27:47.476Z,12.63
2022-11-16T01:30:15.280Z,12.62
2022-11-16T01:32:41.770Z,12.64
2022-11-16T01:35:08.591Z,12.67
2022-11-16T01:37:34.882Z,12.67
2022-11-16T01:40:01.221Z,12.57
2022-11-16T01:42:28.593Z,12.68
2022-11-16T01:44:56.967Z,12.66
2022-11-16T01:47:27.714Z,12.68
2022-11-16T01:50:06.155Z,12.69
2022-11-16T01:52:35.257Z,12.71
2022-11-16T01:55:02.099Z,12.70
2022-11-16T01:57:31.692Z,12.75
2022-11-16T01:59:58.982Z,12.74
2022-11-16T02:02:25.254Z,12.75
2022-11-16T02:04:52.403Z,12.76
2022-11-16T02:07:23.046Z,12.76
2022-11-16T02:09:55.160Z,12.78
2022-11-16T02:12:21.430Z,12.75
2022-11-16T02:14:53.770Z,12.72
2022-11-16T02:17:28.893Z,12.76
2022-11-16T02:19:55.173Z,12.77
2022-11-16T02:22:39.347Z,12.78
2022-11-16T02:25:29.452Z,12.77
2022-11-16T02:28:12.870Z,12.81
2022-11-16T02:30:43.691Z,12.79
2022-11-16T02:33:12.549Z,12.79
2022-11-16T02:35:46.730Z,12.81
2022-11-16T02:38:19.082Z,12.82
2022-11-16T02:40:47.886Z,12.79
2022-11-16T02:43:17.656Z,12.78
2022-11-16T02:45:46.148Z,12.76
2022-11-16T02:48:19.488Z,12.76
2022-11-16T02:50:46.599Z,12.74
2022-11-16T02:53:12.931Z,12.75
2022-11-16T02:55:39.219Z,12.73
2022-11-16T02:58:06.923Z,12.73
2022-11-16T03:00:43.522Z,12.74
2022-11-16T03:03:22.084Z,12.74
2022-11-16T03:05:51.043Z,12.74
2022-11-16T03:08:26.511Z,12.73
2022-11-16T03:11:22.562Z,12.74
2022-11-16T03:13:49.471Z,12.68
2022-11-16T03:16:26.958Z,12.69
2022-11-16T03:18:55.423Z,12.71
2022-11-16T03:21:21.784Z,12.73
2022-11-16T03:23:48.483Z,12.72
2022-11-16T03:26:16.407Z,12.75
2022-11-16T03:28:50.026Z,12.73
2022-11-16T03:31:24.320Z,12.71
2022-11-16T03:33:55.871Z,12.69
2022-11-16T03:36:28.632Z,12.72
2022-11-16T03:38:56.072Z,12.71
2022-11-16T03:41:24.247Z,12.72
2022-11-16T03:43:51.642Z,12.75
2022-11-16T03:46:18.049Z,12.75
2022-11-16T03:48:44.288Z,12.72
2022-11-16T03:51:11.062Z,12.72
2022-11-16T03:53:37.418Z,12.69
2022-11-16T03:56:03.789Z,12.67
2022-11-16T03:58:30.394Z,12.66
2022-11-16T04:00:56.931Z,12.67
2022-11-16T04:03:23.275Z,12.64
2022-11-16T04:06:08.311Z,12.64
2022-11-16T04:08:53.087Z,12.63
2022-11-16T04:11:39.007Z,12.63
2022-11-16T04:14:24.268Z,12.66
2022-11-16T04:17:09.164Z,12.71
2022-11-16T04:19:57.891Z,12.72
2022-11-16T04:22:46.523Z,12.74
2022-11-16T04:25:15.810Z,12.73
2022-11-16T04:28:00.668Z,12.77
2022-11-16T04:30:47.166Z,12.75
2022-11-16T04:33:31.994Z,12.73
2022-11-16T04:36:20.570Z,12.75
2022-11-16T04:38:47.145Z,12.76
2022-11-16T04:41:33.396Z,12.75
2022-11-16T04:43:59.666Z,12.63
2022-11-16T04:46:44.744Z,12.60
2022-11-16T04:49:10.987Z,12.40
2022-11-16T04:51:37.294Z,12.61
2022-11-16T04:54:03.545Z,12.60
2022-11-16T04:56:29.886Z,12.61
2022-11-16T04:58:56.114Z,12.58
2022-11-16T05:01:42.451Z,12.61
2022-11-16T05:04:08.874Z,12.62
2022-11-16T05:06:35.283Z,12.67
2022-11-16T05:09:01.563Z,12.62
2022-11-16T05:11:27.806Z,12.65
2022-11-16T05:13:54.093Z,12.45
2022-11-16T05:16:20.505Z,12.65
2022-11-16T05:19:06.735Z,12.63
2022-11-16T05:21:33.001Z,12.60
2022-11-16T05:24:18.191Z,12.53
2022-11-16T05:26:44.459Z,12.50
2022-11-16T05:29:10.737Z,12.52
2022-11-16T05:31:40.437Z,12.52
2022-11-16T05:34:08.285Z,12.50
2022-11-16T05:36:34.659Z,12.48
2022-11-16T05:39:00.994Z,12.55
2022-11-16T05:41:27.569Z,12.53
2022-11-16T05:43:55.222Z,12.50
2022-11-16T05:46:21.780Z,12.47
2022-11-16T05:48:48.041Z,12.38
2022-11-16T05:51:14.419Z,12.37
2022-11-16T05:53:40.823Z,12.23
2022-11-16T05:56:07.339Z,12.18
2022-11-16T05:58:33.963Z,12.14
2022-11-16T06:01:00.504Z,12.08
2022-11-16T06:03:30.191Z,11.98
2022-11-16T06:05:57.112Z,11.95
2022-11-16T06:08:23.787Z,11.94
2022-11-16T06:10:50.229Z,11.89
2022-11-16T06:13:16.659Z,11.84
2022-11-16T06:18:23.246Z,11.63
2022-11-16T06:20:49.907Z,11.59
2022-11-16T06:23:16.261Z,11.56
2022-11-16T06:25:43.135Z,11.56
2022-11-16T06:28:10.198Z,11.48
2022-11-16T06:30:38.128Z,11.44
2022-11-16T06:33:04.982Z,11.47
2022-11-16T06:35:31.327Z,11.46
2022-11-16T06:37:58.158Z,11.43
2022-11-16T06:40:25.178Z,11.47
2022-11-16T06:42:51.567Z,11.45
2022-11-16T06:45:17.879Z,11.46
2022-11-16T06:47:44.127Z,11.41
2022-11-16T06:50:10.524Z,11.39
2022-11-16T06:52:36.797Z,11.37
2022-11-16T06:55:03.043Z,11.42
2022-11-16T06:57:29.317Z,11.38
2022-11-16T06:59:55.657Z,11.43
2022-11-16T07:02:22.830Z,11.33
2022-11-16T07:04:49.106Z,11.29
2022-11-16T07:07:16.200Z,11.33
2022-11-16T07:09:44.467Z,11.26
2022-11-16T07:12:11.078Z,11.25
2022-11-16T07:14:37.534Z,11.23
2022-11-16T07:17:09.072Z,11.23
2022-11-16T07:19:36.649Z,11.22
2022-11-16T07:22:03.454Z,11.17
2022-11-16T07:24:29.729Z,11.12
2022-11-16T07:26:56.031Z,11.10
2022-11-16T07:29:22.500Z,11.11
2022-11-16T07:31:48.770Z,11.08
2022-11-16T07:34:15.014Z,11.01
2022-11-16T07:36:59.785Z,11.03
2022-11-16T07:39:45.713Z,10.98
2022-11-16T07:42:30.716Z,11.00
2022-11-16T07:45:15.506Z,10.94
2022-11-16T07:48:21.583Z,10.94
2022-11-16T07:50:47.870Z,10.95
2022-11-16T07:53:14.150Z,10.92
2022-11-16T07:55:40.545Z,10.98
2022-11-16T07:58:07.083Z,11.00
2022-11-16T08:00:33.402Z,10.99
2022-11-16T08:02:59.635Z,11.01
2022-11-16T08:05:27.348Z,11.00
2022-11-16T08:07:53.686Z,11.01
2022-11-16T08:10:20.056Z,11.04
2022-11-16T08:12:46.417Z,11.05
2022-11-16T08:15:14.019Z,11.10
2022-11-16T08:17:40.458Z,11.11
2022-11-16T08:20:08.251Z,11.12
2022-11-16T08:22:34.540Z,11.15
2022-11-16T08:25:00.882Z,11.21
2022-11-16T08:27:27.293Z,11.20
2022-11-16T08:29:53.567Z,11.25
2022-11-16T08:32:19.837Z,11.31
2022-11-16T08:34:46.122Z,11.38
2022-11-16T08:37:12.389Z,11.49
2022-11-16T08:39:38.688Z,11.60
2022-11-16T08:42:05.035Z,11.74
2022-11-16T08:44:31.360Z,11.82
2022-11-16T08:46:57.681Z,11.84
2022-11-16T08:49:26.894Z,11.91
2022-11-16T08:54:37.236Z,11.94
2022-11-16T08:57:03.571Z,12.08
2022-11-16T08:59:29.799Z,12.22
2022-11-16T09:01:56.095Z,12.35
2022-11-16T09:04:23.279Z,12.44
2022-11-16T09:06:49.648Z,12.50
2022-11-16T09:09:15.955Z,12.51
2022-11-16T09:11:42.285Z,12.47
2022-11-16T09:16:58.409Z,12.49
2022-11-16T09:19:24.719Z,12.50
2022-11-16T09:21:51.051Z,12.47
2022-11-16T09:24:17.455Z,12.45
2022-11-16T09:26:43.720Z,12.44
2022-11-16T09:29:13.880Z,12.46
2022-11-16T09:31:40.177Z,12.44
2022-11-16T09:34:06.552Z,12.45
2022-11-16T09:36:33.122Z,12.39
2022-11-16T09:39:30.253Z,12.35
2022-11-16T09:42:03.647Z,12.33
2022-11-16T09:44:37.656Z,12.32
2022-11-16T09:47:04.591Z,12.32
2022-11-16T09:49:33.147Z,12.30
2022-11-16T09:54:47.131Z,12.29
2022-11-16T09:57:16.293Z,12.31
2022-11-16T09:59:48.296Z,12.33
2022-11-16T10:02:32.403Z,12.32
2022-11-16T10:05:03.577Z,12.35
2022-11-16T10:07:33.317Z,12.35
2022-11-16T10:09:59.807Z,12.33
2022-11-16T10:12:46.160Z,12.33
2022-11-16T10:15:38.635Z,12.34
2022-11-16T10:18:08.850Z,12.37
2022-11-16T10:20:35.126Z,12.41
2022-11-16T10:23:04.435Z,12.42
2022-11-16T10:25:42.047Z,12.44
2022-11-16T10:28:26.312Z,12.44
2022-11-16T10:30:59.631Z,12.45
2022-11-16T10:33:27.940Z,12.47
2022-11-16T10:35:54.289Z,12.50
2022-11-16T10:38:22.097Z,12.51
2022-11-16T10:41:11.817Z,12.51
2022-11-16T10:43:38.377Z,12.56
2022-11-16T10:46:04.823Z,12.57
2022-11-16T10:48:51.369Z,12.59
2022-11-16T10:51:17.712Z,12.58
2022-11-16T10:53:44.193Z,12.60
2022-11-16T10:56:13.437Z,12.59
2022-11-16T10:58:59.621Z,12.60
2022-11-16T11:01:39.373Z,12.58
2022-11-16T11:04:16.628Z,12.63
2022-11-16T11:06:43.687Z,12.71
2022-11-16T11:09:22.615Z,12.83
2022-11-16T11:12:22.623Z,12.92
2022-11-16T11:14:57.964Z,12.94
2022-11-16T11:17:24.830Z,12.93
2022-11-16T11:19:58.729Z,12.93
2022-11-16T11:22:25.000Z,12.98
2022-11-16T11:24:51.430Z,12.98
2022-11-16T11:27:21.744Z,12.96
2022-11-16T11:29:51.123Z,12.95
2022-11-16T11:32:23.933Z,12.93
2022-11-16T11:34:52.739Z,12.94
2022-11-16T11:37:20.847Z,12.97
2022-11-16T11:42:31.460Z,12.96
2022-11-16T11:44:58.495Z,13.00
2022-11-16T11:47:57.309Z,13.00
2022-11-16T11:50:27.127Z,12.98
2022-11-16T11:53:02.259Z,13.00
2022-11-16T11:55:31.622Z,12.99
2022-11-16T11:57:59.381Z,12.80
2022-11-16T12:00:26.066Z,12.99
2022-11-16T12:03:01.424Z,13.03
2022-11-16T12:05:35.217Z,13.03
2022-11-16T12:08:07.283Z,12.99
2022-11-16T12:10:53.451Z,12.95
2022-11-16T12:13:19.658Z,12.95
2022-11-16T12:15:48.984Z,12.95
2022-11-16T12:18:23.015Z,12.92
2022-11-16T12:20:55.418Z,12.93
2022-11-16T12:23:21.644Z,13.02
2022-11-16T12:25:51.151Z,13.12
2022-11-16T12:28:24.873Z,13.22
2022-11-16T12:31:10.147Z,13.33
2022-11-16T12:33:46.032Z,13.45
2022-11-16T12:36:29.080Z,13.61
2022-11-16T12:39:05.866Z,13.77
2022-11-16T12:41:41.340Z,13.82
2022-11-16T12:44:14.758Z,13.79
2022-11-16T12:46:50.627Z,13.72
2022-11-16T12:49:24.129Z,13.75
2022-11-16T12:51:50.387Z,13.78
2022-11-16T12:54:26.513Z,13.86
2022-11-16T12:56:52.763Z,13.97
2022-11-16T12:59:34.467Z,14.03
2022-11-16T13:02:06.963Z,14.07
2022-11-16T13:04:41.026Z,14.07
2022-11-16T13:07:13.652Z,14.01
2022-11-16T13:09:43.259Z,13.95
2022-11-16T13:12:14.139Z,13.90
2022-11-16T13:14:43.411Z,13.90
2022-11-16T13:17:15.113Z,13.94
2022-11-16T13:19:44.761Z,13.60
2022-11-16T13:22:14.604Z,14.00
2022-11-16T13:24:44.295Z,13.98
2022-11-16T13:27:24.899Z,14.00
2022-11-16T13:29:55.811Z,13.95
2022-11-16T13:32:30.459Z,13.92
2022-11-16T13:34:58.094Z,13.86
2022-11-16T13:37:36.552Z,13.81
2022-11-16T13:40:03.393Z,13.75
2022-11-16T13:42:31.233Z,13.70
2022-11-16T13:45:08.606Z,13.67
2022-11-16T13:47:35.321Z,13.66
2022-11-16T13:50:03.224Z,13.67
2022-11-16T13:53:46.144Z,13.70
2022-11-16T13:55:44.098Z,13.78
2022-11-16T13:58:12.411Z,13.80
2022-11-16T14:00:39.921Z,13.81
2022-11-16T14:03:15.241Z,13.82
2022-11-16T14:05:42.600Z,13.82
2022-11-16T14:08:24.240Z,13.81
2022-11-16T14:10:50.467Z,13.78
2022-11-16T14:13:38.371Z,13.76
2022-11-16T14:16:19.750Z,13.76
2022-11-16T14:18:47.605Z,13.78
2022-11-16T14:21:20.170Z,13.81
2022-11-16T14:24:05.584Z,13.79
2022-11-16T14:26:44.210Z,13.80
2022-11-16T14:29:10.507Z,13.81
2022-11-16T14:31:52.265Z,13.85
2022-11-16T14:34:38.509Z,13.89
2022-11-16T14:37:04.848Z,13.95
2022-11-16T14:39:43.977Z,13.94
2022-11-16T14:42:18.060Z,13.95
2022-11-16T14:44:44.602Z,13.93
2022-11-16T14:47:23.234Z,13.93
2022-11-16T14:49:49.552Z,13.93
2022-11-16T14:52:17.330Z,13.92
2022-11-16T14:54:50.034Z,13.93
2022-11-16T14:57:20.519Z,13.89
2022-11-16T14:59:53.005Z,13.81
2022-11-16T15:02:21.124Z,13.76
2022-11-16T15:04:48.557Z,13.73
2022-11-16T15:07:15.413Z,13.68
2022-11-16T15:09:44.676Z,13.66
2022-11-16T15:12:37.079Z,13.62
2022-11-16T15:15:07.821Z,13.62
2022-11-16T15:17:34.635Z,13.58
2022-11-16T15:20:02.025Z,13.57
2022-11-16T15:22:30.262Z,13.57
2022-11-16T15:24:57.588Z,13.56
2022-11-16T15:27:41.348Z,13.56
2022-11-16T15:30:15.134Z,13.51
2022-11-16T15:32:45.927Z,13.48
2022-11-16T15:35:15.783Z,13.45
2022-11-16T15:37:42.043Z,13.44
2022-11-16T15:40:09.231Z,13.42
2022-11-16T15:42:36.979Z,13.38
2022-11-16T15:45:10.470Z,13.37
2022-11-16T15:47:42.172Z,13.32
2022-11-16T15:50:15.778Z,13.33
2022-11-16T15:52:43.542Z,13.31
2022-11-16T15:55:23.838Z,13.28
2022-11-16T15:57:59.124Z,13.27
2022-11-16T16:00:25.846Z,13.26
2022-11-16T16:02:52.186Z,13.22
2022-11-16T16:05:23.948Z,13.19
2022-11-16T16:07:50.474Z,13.15
2022-11-16T16:10:19.542Z,13.09
2022-11-16T16:12:52.831Z,13.06
2022-11-16T16:15:22.202Z,13.01
2022-11-16T16:17:48.774Z,12.95
2022-11-16T16:20:18.152Z,12.91
2022-11-16T16:22:44.827Z,12.86
2022-11-16T16:25:31.392Z,12.81
2022-11-16T16:28:00.586Z,12.79
2022-11-16T16:30:28.182Z,12.75
2022-11-16T16:32:54.674Z,12.72
2022-11-16T16:35:22.233Z,12.69
2022-11-16T16:37:49.684Z,12.67
2022-11-16T16:40:17.083Z,12.63
2022-11-16T16:42:43.598Z,12.58
2022-11-16T16:45:16.657Z,12.54
2022-11-16T16:47:42.907Z,12.52
2022-11-16T16:50:09.567Z,12.52
2022-11-16T16:52:35.801Z,12.53
2022-11-16T16:55:02.050Z,12.55
2022-11-16T16:57:28.540Z,12.54
2022-11-16T16:59:54.917Z,12.54
2022-11-16T17:02:21.362Z,12.54
2022-11-16T17:04:48.371Z,12.50
2022-11-16T17:07:15.423Z,12.47
2022-11-16T17:09:42.117Z,12.44
2022-11-16T17:12:08.548Z,12.38
2022-11-16T17:14:34.817Z,12.37
2022-11-16T17:17:01.065Z,12.32
2022-11-16T17:19:27.793Z,12.27
2022-11-16T17:21:54.135Z,12.25
2022-11-16T17:24:20.435Z,12.20
2022-11-16T17:26:50.433Z,12.11
2022-11-16T17:29:16.728Z,12.08
2022-11-16T17:31:44.075Z,12.03
2022-11-16T17:34:13.840Z,12.02
2022-11-16T17:36:43.441Z,11.99
2022-11-16T17:39:09.714Z,11.98
2022-11-16T17:41:36.029Z,11.96
2022-11-16T17:44:02.336Z,11.94
2022-11-16T17:46:28.966Z,11.95
2022-11-16T17:48:55.296Z,11.95
2022-11-16T17:51:23.580Z,11.97
2022-11-16T17:53:49.907Z,11.97
2022-11-16T17:56:17.580Z,11.95
2022-11-16T17:58:47.181Z,11.92
2022-11-16T18:01:14.178Z,11.89
2022-11-16T18:03:40.784Z,11.83
2022-11-16T18:06:08.619Z,11.78
2022-11-16T18:08:36.218Z,11.71
2022-11-16T18:11:03.378Z,11.70
2022-11-16T18:13:29.672Z,11.64
2022-11-16T18:16:01.360Z,11.61
2022-11-16T18:18:27.649Z,11.56
2022-11-16T18:20:53.909Z,11.54
2022-11-16T18:23:20.179Z,11.50
2022-11-16T18:25:46.421Z,11.47
2022-11-16T18:28:12.747Z,11.47
2022-11-16T18:30:39.107Z,11.46
2022-11-16T18:33:05.419Z,11.47
2022-11-16T18:35:31.696Z,11.46
2022-11-16T18:37:57.931Z,11.46
2022-11-16T18:40:24.173Z,11.48
2022-11-16T18:42:50.399Z,11.46
2022-11-16T18:45:16.672Z,11.45
2022-11-16T18:47:42.994Z,11.42
2022-11-16T18:50:18.053Z,11.50
2022-11-16T18:52:46.611Z,11.55
2022-11-16T18:55:12.903Z,11.58
2022-11-16T18:57:39.465Z,11.61
2022-11-16T19:00:06.536Z,11.65
2022-11-16T19:02:32.795Z,11.71
2022-11-16T19:04:59.046Z,11.72
2022-11-16T19:07:27.368Z,11.72
2022-11-16T19:09:53.823Z,11.71
2022-11-16T19:12:20.190Z,11.71
2022-11-16T19:14:46.510Z,11.76
2022-11-16T19:17:12.860Z,11.79
2022-11-16T19:19:39.118Z,11.77
2022-11-16T19:22:05.416Z,11.79
2022-11-16T19:24:31.818Z,11.77
2022-11-16T19:26:58.236Z,11.76
2022-11-16T19:29:24.571Z,11.79
2022-11-16T19:31:50.838Z,11.75
2022-11-16T19:34:17.127Z,11.75
2022-11-16T19:36:43.360Z,11.76
2022-11-16T19:39:09.624Z,11.75
2022-11-16T19:41:35.956Z,11.69
2022-11-16T19:44:02.338Z,11.69
2022-11-16T19:46:32.667Z,11.71
2022-11-16T19:48:59.220Z,11.72
2022-11-16T19:51:26.896Z,11.70
2022-11-16T19:53:53.458Z,11.70
2022-11-16T19:56:21.068Z,11.69
2022-11-16T19:59:00.218Z,11.64
2022-11-16T20:01:29.968Z,11.64
2022-11-16T20:03:59.065Z,11.66
2022-11-16T20:06:28.909Z,11.61
2022-11-16T20:08:56.103Z,11.61
2022-11-16T20:11:23.566Z,11.58
2022-11-16T20:13:50.837Z,11.57
2022-11-16T20:16:18.652Z,11.52
2022-11-16T20:18:45.329Z,11.47
2022-11-16T20:21:13.129Z,11.47
2022-11-16T20:23:39.435Z,11.47
2022-11-16T20:26:05.947Z,11.49
2022-11-16T20:28:36.218Z,11.49
2022-11-16T20:31:05.112Z,11.52
2022-11-16T20:33:33.004Z,11.50
2022-11-16T20:36:03.416Z,11.48
2022-11-16T20:38:31.499Z,11.49
2022-11-16T20:40:57.793Z,11.50
2022-11-16T20:43:24.129Z,11.51
2022-11-16T20:45:53.712Z,11.46
2022-11-16T20:48:20.010Z,11.49
2022-11-16T20:50:50.606Z,11.51
2022-11-16T20:53:16.836Z,11.53
2022-11-16T20:55:43.436Z,11.55
2022-11-16T20:58:09.676Z,11.53
2022-11-16T21:00:35.965Z,11.54
2022-11-16T21:03:02.272Z,11.54
2022-11-16T21:05:28.687Z,11.54
2022-11-16T21:07:54.964Z,11.57
2022-11-16T21:10:21.278Z,11.54
2022-11-16T21:13:05.916Z,11.52
2022-11-16T21:15:32.159Z,11.54
2022-11-16T21:17:58.608Z,11.52
2022-11-16T21:20:27.933Z,11.50
2022-11-16T21:22:54.826Z,11.53
2022-11-16T21:25:21.265Z,11.54
2022-11-16T21:27:48.195Z,11.56
2022-11-16T21:30:14.648Z,11.56
2022-11-16T21:32:41.023Z,11.56
2022-11-16T21:35:07.514Z,11.56
2022-11-16T21:37:34.084Z,11.54
2022-11-16T21:40:00.368Z,11.57
2022-11-16T21:42:26.628Z,11.58
2022-11-16T21:44:52.875Z,11.59
2022-11-16T21:47:21.015Z,11.61
2022-11-16T21:50:08.648Z,11.60
2022-11-16T21:52:33.767Z,11.62
2022-11-16T21:55:00.193Z,11.66
2022-11-16T21:57:26.464Z,11.68
2022-11-16T21:59:53.051Z,11.69
2022-11-16T22:02:19.338Z,11.71
2022-11-16T22:05:04.424Z,11.71
2022-11-16T22:07:33.411Z,11.70
2022-11-16T22:10:01.379Z,11.66
2022-11-16T22:12:28.024Z,11.67
2022-11-16T22:14:54.843Z,11.66
2022-11-16T22:17:21.864Z,11.63
2022-11-16T22:19:48.457Z,11.66
2022-11-16T22:22:14.732Z,11.67
2022-11-16T22:24:41.359Z,11.66
2022-11-16T22:27:08.673Z,11.67
2022-11-16T22:29:35.061Z,11.66
2022-11-16T22:32:01.384Z,11.63
2022-11-16T22:34:27.641Z,11.62
2022-11-16T22:36:53.924Z,11.61
2022-11-16T22:39:20.156Z,11.58
2022-11-16T22:41:46.427Z,11.55
2022-11-16T22:44:15.332Z,11.50
2022-11-16T22:46:41.802Z,11.50
2022-11-16T22:49:08.717Z,11.45
2022-11-16T22:51:35.007Z,11.47
2022-11-16T22:54:04.820Z,11.47
2022-11-16T22:56:32.434Z,11.49
2022-11-16T22:58:59.204Z,11.48
2022-11-16T23:01:25.466Z,11.48
2022-11-16T23:03:51.870Z,11.47
2022-11-16T23:06:18.296Z,11.47
2022-11-16T23:08:44.839Z,11.47
2022-11-16T23:11:36.775Z,11.49
2022-11-16T23:14:22.589Z,11.51
2022-11-16T23:16:48.946Z,11.52
2022-11-16T23:19:35.296Z,11.54
2022-11-16T23:22:20.741Z,11.51
2022-11-16T23:25:05.394Z,11.47
2022-11-16T23:27:38.730Z,11.50
2022-11-16T23:30:11.882Z,11.47
2022-11-16T23:32:38.919Z,11.47
2022-11-16T23:35:05.406Z,11.51
2022-11-16T23:37:31.647Z,11.51
2022-11-16T23:39:57.880Z,11.55
2022-11-16T23:42:42.822Z,11.57
2022-11-16T23:45:09.190Z,11.52
2022-11-16T23:47:35.536Z,11.52
2022-11-16T23:50:01.792Z,11.50
2022-11-16T23:52:28.046Z,11.49
2022-11-16T23:54:54.699Z,11.52
2022-11-16T23:57:20.950Z,11.52
2022-11-16T23:59:47.268Z,11.53
